Fineview, New York
Current Conditions -  °F | °C
As of 9:56 AM on Monday 24 Nov 2014 (Local Time) from KART Reporting Station
Broken Clouds Broken Clouds  
Wind Chill: 66°   Ceiling: 5500
Heat Index: 66°   Visibility: 10mi
Dew Point: 51°   Wind: 12mph
Humidity: 59%   Direction: 190°S
Pressure: 29.36"   Gusts: 29mph
Location:  44.2876°N, 76.0127°W
Report Text: KART 241456Z AUTO 19010G25KT 10SM BKN055 19/11 A2936 RMK AO2 PK WND 19029/1419 SLP940 60000 T01890106 55001
Loading
Personal Weather Stations






























Interactive Weather Map New forecast layout! Learn more

10-Day Weather Forecast

Advertisements
Track Severe Weather on mobile